Flight Track Log - Related Links

Times and Time Zones

All times are in EDT time to prevent confusion due to time zone crossing. See the N152DC flight status page for this flight to view local times or setup timezone preferences in your user account.

Time Position Orientation Groundspeed Altitude Reporting Facility
EDT Latitude Longitude Course Direction KTS MPH feet Rate Location/Type
Thu 12:55:17 PM 40.7000 -73.4000 180° South 89 102 1,000  Level New York TRACON
Thu 12:56:11 PM 40.6833 -73.4000 180° South 81 93 1,600 650 Climbing New York TRACON
Thu 12:57:17 PM 40.6500 -73.4000 180° South 81 93 2,300 571 Climbing New York TRACON
Thu 12:58:17 PM 40.6500 -73.3667 90° East 102 117 2,800 300 Climbing New York TRACON
Thu 12:59:17 PM 40.6667 -73.3333 57° Northeast 118 136 2,900 33 Climbing New York TRACON
Thu 01:01:17 PM 40.7167 -73.3000 27° Northeast 118 136 2,900 33 Level New York TRACON
Thu 01:02:17 PM 40.7500 -73.2833 21° North 119 137 3,000 50 Climbing New York TRACON
Thu 01:03:17 PM 40.7833 -73.2667 21° North 124 143 3,000  Level New York TRACON
Thu 01:04:17 PM 40.8167 -73.2333 37° Northeast 122 140 3,000  Level New York TRACON
Thu 01:05:11 PM 40.8333 -73.2167 37° Northeast 125 144 3,000  Level New York TRACON
Thu 01:06:11 PM 40.8667 -73.1833 37° Northeast 126 145 3,000  Level New York TRACON
Thu 01:07:11 PM 40.8833 -73.1500 57° Northeast 126 145 3,000 -50 Level New York TRACON
Thu 01:08:11 PM 40.9000 -73.1167 57° Northeast 126 145 2,900  Descending New York TRACON
Thu 01:09:11 PM 40.9167 -73.0833 57° Northeast 124 143 3,000 -95 Climbing New York TRACON
Thu 01:10:17 PM 40.9167 -73.0333 90° East 118 136 2,700 -400 Descending New York TRACON
Thu 01:11:11 PM 40.9167 -73.0000 90° East 114 131 2,200 -400 Descending New York TRACON
Thu 01:12:17 PM 40.8833 -73.0000 180° South 91 105 1,900 -190 Descending New York TRACON
Thu 01:13:17 PM 40.8667 -73.0000 180° South 88 101 1,800 -200 Descending New York TRACON
Thu 01:14:17 PM 40.8500 -73.0333 237° Southwest 84 97 1,500 -316 Descending New York TRACON
Thu 01:15:11 PM 40.8333 -73.0500 217° Southwest 88 101 1,200 -421 Descending New York TRACON
Thu 01:16:11 PM 40.8167 -73.0667 217° Southwest 89 102 700 -150 Descending New York TRACON
Thu 01:17:11 PM 40.8000 -73.1000 237° Southwest 106 122 900 350 Climbing New York TRACON
Thu 01:18:11 PM 40.8167 -73.1167 323° Northwest 115 132 1,400 500 Climbing New York TRACON
Thu 01:19:11 PM 40.8333 -73.1167 360° North 116 133 1,900 300 Climbing New York TRACON
Thu 01:20:11 PM 40.8667 -73.1000 21° North 123 142 2,000 95 Climbing New York TRACON
Thu 01:21:17 PM 40.9000 -73.0667 37° Northeast 118 136 2,100  Climbing New York TRACON
Thu 01:22:11 PM 40.9167 -73.0500 37° Northeast 123 142 2,000 -50 Descending New York TRACON
Thu 01:23:17 PM 40.9000 -73.0167 123° Southeast 101 116 2,000 -48 Level New York TRACON
Thu 01:24:17 PM 40.8833 -73.0000 143° Southeast 96 110 1,900 -53 Descending New York TRACON
Thu 01:25:11 PM 40.8667 -73.0167 217° Southwest 81 93 1,900 -263 Level New York TRACON
Thu 01:26:11 PM 40.8500 -73.0333 217° Southwest 86 99 1,400 -500 Descending New York TRACON
Thu 01:27:11 PM 40.8333 -73.0500 217° Southwest 92 106 900 -429 Descending New York TRACON
Thu 01:28:17 PM 40.8167 -73.0833 237° Southwest 96 110 500  Descending New York TRACON
Thu 01:29:11 PM 40.8000 -73.1000 217° Southwest 105 121 900 579 Climbing New York TRACON
Thu 01:30:11 PM 40.7833 -73.1333 237° Southwest 94 108 1,600 500 Climbing New York TRACON
Thu 01:31:11 PM 40.7833 -73.1667 270° West 102 117 1,900 200 Climbing New York TRACON
Thu 01:32:11 PM 40.8000 -73.2167 294° West 118 136 2,000  Climbing New York TRACON
Thu 01:33:11 PM 40.8000 -73.2500 270° West 102 117 1,900  Descending New York TRACON
Thu 01:34:11 PM 40.8000 -73.2833 270° West 100 115 2,000 50 Climbing New York TRACON
Thu 01:35:11 PM 40.8000 -73.3333 270° West 108 124 2,000  Level New York TRACON
Thu 01:36:11 PM 40.8167 -73.3667 303° West 107 123 2,000  Level New York TRACON
Thu 01:37:11 PM 40.8167 -73.4000 270° West 108 124 2,000 -50 Level New York TRACON
Thu 01:38:11 PM 40.8333 -73.4333 303° West 108 124 1,900  Descending New York TRACON
Thu 01:39:11 PM 40.8333 -73.4667 270° West 98 113 2,000 50 Climbing New York TRACON
Thu 01:40:11 PM 40.8167 -73.5000 237° Southwest 95 109 2,000 -200 Level New York TRACON
Thu 01:41:11 PM 40.8000 -73.5000 180° South 87 100 1,600 -250 Descending New York TRACON
Thu 01:42:11 PM 40.7833 -73.4833 143° Southeast 80 92 1,500 -250 Descending New York TRACON
Thu 01:43:11 PM 40.7667 -73.4667 143° Southeast 85 98 1,100 -400 Descending New York TRACON

Login

Don't have an account? Register now (free) for customized features, flight alerts, and more!